Time;durP1;ratioP1;P1;durP2;ratioP2;P2;SDS_P1;SDS_P2;PMS_P1;PMS_P2;Temp;Humidity;BMP_temperature;BMP_pressure;BME280_temperature;BME280_humidity;BME280_pressure;Samples;Min_cycle;Max_cycle;Signal;HPM_P1;HPM_P2
2022/10/14 00:01:47;;;;;;;18.42;11.07;;;16.30;99.90;;;;;;4979318;28;20196;-65
2022/10/14 00:04:13;;;;;;;20.92;11.65;;;16.20;99.90;;;;;;4987922;28;20199;-66
2022/10/14 00:06:38;;;;;;;18.10;11.07;;;16.30;99.90;;;;;;4992568;28;20652;-66
2022/10/14 00:09:07;;;;;;;16.88;10.73;;;16.30;99.90;;;;;;4991025;28;20193;-65
2022/10/14 00:11:35;;;;;;;18.83;11.30;;;16.30;99.90;;;;;;5006144;28;20184;-66
2022/10/14 00:14:16;;;;;;;21.00;11.70;;;16.20;99.90;;;;;;5004119;28;20190;-66
2022/10/14 00:16:44;;;;;;;19.23;11.20;;;16.10;99.90;;;;;;5010828;28;20195;-66
2022/10/14 00:19:10;;;;;;;15.70;10.13;;;16.20;99.90;;;;;;4996683;28;20245;-65
2022/10/14 00:21:39;;;;;;;15.02;10.07;;;16.30;99.90;;;;;;4993887;28;20188;-66
2022/10/14 00:24:05;;;;;;;17.17;9.98;;;16.10;99.90;;;;;;5009235;28;20183;-66
2022/10/14 00:26:34;;;;;;;13.57;9.85;;;16.20;99.90;;;;;;5010341;28;20202;-65
2022/10/14 00:29:01;;;;;;;18.50;10.18;;;16.20;99.90;;;;;;5002234;28;20214;-66
2022/10/14 00:31:28;;;;;;;13.98;9.77;;;16.40;99.90;;;;;;5010798;28;20214;-65
2022/10/14 00:33:53;;;;;;;17.42;9.60;;;16.50;99.90;;;;;;5009008;28;20563;-65
2022/10/14 00:36:21;;;;;;;15.32;9.40;;;16.50;99.90;;;;;;4981946;28;20246;-66
2022/10/14 00:38:47;;;;;;;17.95;10.27;;;16.40;99.90;;;;;;5000842;28;20194;-65
2022/10/14 00:41:33;;;;;;;17.83;10.20;;;16.40;99.90;;;;;;4978293;28;20188;-66
2022/10/14 00:44:06;;;;;;;15.98;9.32;;;16.40;99.90;;;;;;4987449;28;20325;-65
2022/10/14 00:46:42;;;;;;;15.55;9.88;;;16.30;99.90;;;;;;5003209;28;20211;-65
2022/10/14 00:49:15;;;;;;;16.85;10.82;;;16.30;99.90;;;;;;4992836;28;20195;-69
2022/10/14 00:51:47;;;;;;;14.55;8.70;;;16.40;99.90;;;;;;5000464;28;20256;-66
2022/10/14 00:54:15;;;;;;;16.70;9.52;;;16.30;99.90;;;;;;5005403;28;20185;-66
2022/10/14 00:56:43;;;;;;;19.88;9.32;;;16.30;99.90;;;;;;5000265;28;20222;-66
2022/10/14 00:59:09;;;;;;;16.30;9.35;;;16.30;99.90;;;;;;5006851;28;20295;-65
2022/10/14 01:01:35;;;;;;;13.52;9.70;;;16.10;99.90;;;;;;5000876;28;20691;-65
2022/10/14 01:04:00;;;;;;;15.40;9.65;;;16.00;99.90;;;;;;5005242;28;20267;-65
2022/10/14 01:06:42;;;;;;;15.82;10.52;;;16.20;99.90;;;;;;5004036;28;20226;-66
2022/10/14 01:09:26;;;;;;;15.90;10.57;;;16.30;99.90;;;;;;4999952;28;20662;-65
2022/10/14 01:12:23;;;;;;;14.30;9.90;;;16.30;99.90;;;;;;5004736;28;20191;-65
2022/10/14 01:15:13;;;;;;;16.88;10.15;;;16.40;99.90;;;;;;4980876;28;20226;-66
2022/10/14 01:17:57;;;;;;;14.75;9.63;;;16.20;99.90;;;;;;5007907;28;20183;-65
2022/10/14 01:20:40;;;;;;;15.30;9.60;;;16.20;99.90;;;;;;5011265;28;20184;-65
2022/10/14 01:23:34;;;;;;;15.95;9.15;;;16.20;99.90;;;;;;4998060;28;20551;-65
2022/10/14 01:26:24;;;;;;;17.63;10.50;;;16.30;99.90;;;;;;5008514;28;20223;-65
2022/10/14 01:29:14;;;;;;;15.25;9.32;;;16.10;99.90;;;;;;5009791;28;20186;-65
2022/10/14 01:31:46;;;;;;;17.27;9.93;;;16.30;99.90;;;;;;5000470;28;20179;-67
2022/10/14 01:34:18;;;;;;;17.30;9.55;;;16.30;99.90;;;;;;4991827;28;20219;-66
2022/10/14 01:37:04;;;;;;;17.42;10.13;;;16.30;99.90;;;;;;4984889;28;20179;-66
2022/10/14 01:39:41;;;;;;;18.58;10.25;;;16.20;99.90;;;;;;4996830;28;20176;-65
2022/10/14 01:42:15;;;;;;;17.23;10.18;;;16.10;99.90;;;;;;5004724;28;20270;-65
2022/10/14 01:44:45;;;;;;;16.13;9.05;;;15.90;99.90;;;;;;5001014;28;20195;-66
2022/10/14 01:47:15;;;;;;;15.50;8.27;;;15.90;99.90;;;;;;4998831;28;20326;-66
2022/10/14 01:49:51;;;;;;;12.43;8.52;;;16.20;99.90;;;;;;4996496;28;20571;-68
2022/10/14 01:52:26;;;;;;;20.25;9.32;;;16.10;99.90;;;;;;5003549;28;20666;-65
2022/10/14 01:54:56;;;;;;;16.17;9.52;;;16.30;99.90;;;;;;5004489;28;20223;-65
2022/10/14 01:57:26;;;;;;;17.73;10.80;;;16.20;99.90;;;;;;5003032;28;20262;-65
2022/10/14 01:59:54;;;;;;;15.57;9.10;;;16.20;99.90;;;;;;5010488;28;20188;-65
2022/10/14 02:02:20;;;;;;;21.30;10.63;;;16.20;99.90;;;;;;4995935;28;20190;-65
2022/10/14 02:04:46;;;;;;;16.30;9.77;;;16.30;99.90;;;;;;4996163;28;20274;-65
2022/10/14 02:07:33;;;;;;;19.77;10.60;;;16.40;99.90;;;;;;4999446;28;20197;-66
2022/10/14 02:10:11;;;;;;;16.05;9.82;;;16.30;99.90;;;;;;4987877;28;20201;-65
2022/10/14 02:13:02;;;;;;;16.27;10.07;;;16.40;99.90;;;;;;5004455;28;20521;-65
2022/10/14 02:15:49;;;;;;;18.27;10.70;;;16.30;99.90;;;;;;4994403;28;20222;-67
2022/10/14 02:18:27;;;;;;;17.45;10.77;;;16.40;99.90;;;;;;5002111;28;20189;-65
2022/10/14 02:21:16;;;;;;;19.02;10.50;;;16.30;99.90;;;;;;5001663;28;20187;-65
2022/10/14 02:23:53;;;;;;;17.58;9.93;;;16.30;99.90;;;;;;5003097;28;20208;-65
2022/10/14 02:26:20;;;;;;;14.95;9.80;;;16.30;99.90;;;;;;5012854;28;20190;-66
2022/10/14 02:28:47;;;;;;;15.13;10.95;;;16.20;99.90;;;;;;4993648;28;20203;-65
2022/10/14 02:31:16;;;;;;;15.48;10.02;;;16.30;99.90;;;;;;5009803;28;20243;-65
2022/10/14 02:33:47;;;;;;;20.52;10.75;;;16.30;99.90;;;;;;4995086;28;20234;-65
2022/10/14 02:36:16;;;;;;;16.45;10.18;;;16.30;99.90;;;;;;5008902;28;20215;-65
2022/10/14 02:38:43;;;;;;;17.83;9.32;;;16.20;99.90;;;;;;5012370;28;20202;-65
2022/10/14 02:41:14;;;;;;;15.27;9.52;;;16.20;99.90;;;;;;5012783;28;20187;-65
2022/10/14 02:43:39;;;;;;;17.70;11.02;;;16.20;99.90;;;;;;5005194;28;20231;-66
2022/10/14 02:46:05;;;;;;;17.85;9.32;;;16.10;99.90;;;;;;5001567;28;20188;-65
2022/10/14 02:48:31;;;;;;;15.35;9.45;;;16.10;99.90;;;;;;4992367;28;20229;-66
2022/10/14 02:50:57;;;;;;;17.95;10.25;;;16.20;99.90;;;;;;4996826;28;20203;-65
2022/10/14 02:53:23;;;;;;;16.45;10.55;;;16.20;99.90;;;;;;4978963;28;20188;-66
2022/10/14 02:55:48;;;;;;;17.70;9.60;;;16.20;99.90;;;;;;5007145;28;20220;-65
2022/10/14 02:58:14;;;;;;;18.70;10.82;;;16.30;99.90;;;;;;4971158;28;20657;-70
2022/10/14 03:00:40;;;;;;;18.08;10.77;;;16.30;99.90;;;;;;5008069;28;20321;-65
2022/10/14 03:03:05;;;;;;;19.10;10.07;;;16.20;99.90;;;;;;5005428;28;20230;-65
2022/10/14 03:05:31;;;;;;;19.33;11.93;;;16.30;99.90;;;;;;4981072;28;20199;-66
2022/10/14 03:07:57;;;;;;;15.82;10.43;;;16.30;99.90;;;;;;5012741;28;20566;-65
2022/10/14 03:10:23;;;;;;;17.77;10.43;;;16.20;99.90;;;;;;4990682;28;20629;-65
2022/10/14 03:12:48;;;;;;;16.23;9.98;;;16.20;99.90;;;;;;5000506;28;20314;-65
2022/10/14 03:15:14;;;;;;;20.90;11.25;;;16.20;99.90;;;;;;5005589;28;20246;-65
2022/10/14 03:17:40;;;;;;;18.00;11.27;;;16.10;99.90;;;;;;5007836;28;20212;-65
2022/10/14 03:20:06;;;;;;;16.88;10.85;;;16.10;99.90;;;;;;5009711;28;20191;-66
2022/10/14 03:22:32;;;;;;;15.45;9.85;;;16.20;99.90;;;;;;4992445;28;20219;-66
2022/10/14 03:24:57;;;;;;;19.42;10.45;;;16.10;99.90;;;;;;5003253;28;20656;-65
2022/10/14 03:27:23;;;;;;;18.73;11.30;;;16.00;99.90;;;;;;5000335;28;20258;-65
2022/10/14 03:29:52;;;;;;;17.23;10.68;;;16.10;99.90;;;;;;4990110;28;20184;-65
2022/10/14 03:32:17;;;;;;;18.10;10.35;;;16.20;99.90;;;;;;4987944;28;20719;-65
2022/10/14 03:34:43;;;;;;;18.75;11.85;;;16.00;99.90;;;;;;4995491;28;20215;-66
2022/10/14 03:37:08;;;;;;;17.38;10.02;;;16.00;99.90;;;;;;4989647;28;20191;-65
2022/10/14 03:39:34;;;;;;;15.55;10.25;;;16.10;99.90;;;;;;5009643;28;20269;-65
2022/10/14 03:42:00;;;;;;;16.33;9.55;;;16.00;99.90;;;;;;4980164;28;20171;-65
2022/10/14 03:44:25;;;;;;;15.23;10.40;;;16.00;99.90;;;;;;4994939;28;20668;-66
2022/10/14 03:46:51;;;;;;;16.42;10.80;;;16.00;99.90;;;;;;4999093;28;20757;-66
2022/10/14 03:49:16;;;;;;;14.65;8.70;;;16.00;99.90;;;;;;4994553;28;20195;-65
2022/10/14 03:51:42;;;;;;;15.52;9.98;;;16.00;99.90;;;;;;5011344;28;20206;-67
2022/10/14 03:54:08;;;;;;;20.95;10.18;;;15.90;99.90;;;;;;5002738;28;20218;-66
2022/10/14 03:56:33;;;;;;;19.77;9.70;;;15.90;99.90;;;;;;5005909;28;20271;-66
2022/10/14 03:58:59;;;;;;;16.67;10.10;;;15.90;99.90;;;;;;4996082;28;20183;-67
2022/10/14 04:01:25;;;;;;;17.88;10.80;;;15.90;99.90;;;;;;4995152;28;20596;-64
2022/10/14 04:03:50;;;;;;;14.05;8.90;;;15.90;99.90;;;;;;5001325;28;20211;-64
2022/10/14 04:06:16;;;;;;;15.65;9.98;;;15.90;99.90;;;;;;4977984;28;20284;-64
2022/10/14 04:08:42;;;;;;;17.83;9.80;;;15.90;99.90;;;;;;4990808;28;20192;-64
2022/10/14 04:11:08;;;;;;;14.95;9.73;;;16.00;99.90;;;;;;4990411;28;20188;-64
2022/10/14 04:13:35;;;;;;;14.73;10.45;;;16.00;99.90;;;;;;4990701;28;20258;-65
2022/10/14 04:16:09;;;;;;;17.30;9.98;;;16.00;99.90;;;;;;4986317;28;20223;-65
2022/10/14 04:18:35;;;;;;;13.90;8.82;;;15.90;99.90;;;;;;4998370;28;20246;-65
2022/10/14 04:21:06;;;;;;;12.85;9.65;;;15.80;99.90;;;;;;5007886;28;20540;-65
2022/10/14 04:23:32;;;;;;;15.23;9.55;;;15.90;99.90;;;;;;5003300;28;20195;-65
2022/10/14 04:25:58;;;;;;;15.23;9.35;;;16.00;99.90;;;;;;5006821;28;20191;-64
2022/10/14 04:28:24;;;;;;;12.63;7.95;;;16.00;99.90;;;;;;4985465;28;20188;-65
2022/10/14 04:30:49;;;;;;;13.38;8.93;;;16.00;99.90;;;;;;5012342;28;20249;-65
2022/10/14 04:33:15;;;;;;;12.95;8.68;;;16.10;99.90;;;;;;4984991;28;20202;-64
2022/10/14 04:35:40;;;;;;;14.07;8.80;;;16.00;99.90;;;;;;4989557;28;20247;-65
2022/10/14 04:38:09;;;;;;;19.88;9.70;;;16.00;99.90;;;;;;4985939;28;20214;-64
2022/10/14 04:40:35;;;;;;;13.93;8.90;;;16.00;99.90;;;;;;4975105;28;20274;-64
2022/10/14 04:43:03;;;;;;;13.45;7.88;;;16.00;99.90;;;;;;4987747;28;20338;-65
2022/10/14 04:45:29;;;;;;;12.30;8.68;;;16.00;99.90;;;;;;4984908;28;20648;-64
2022/10/14 04:47:54;;;;;;;16.45;8.90;;;16.00;99.90;;;;;;4981012;28;20192;-65
2022/10/14 04:50:20;;;;;;;16.85;10.25;;;16.00;99.90;;;;;;5013228;28;20183;-65
2022/10/14 04:52:46;;;;;;;16.52;9.32;;;16.00;99.90;;;;;;5007968;28;20256;-65
2022/10/14 04:55:12;;;;;;;13.88;9.27;;;15.90;99.90;;;;;;4982472;28;20247;-64
2022/10/14 04:57:42;;;;;;;12.90;8.40;;;15.90;99.90;;;;;;4995641;28;20274;-65
2022/10/14 05:00:12;;;;;;;14.20;8.63;;;15.90;99.90;;;;;;4988723;28;20531;-65
2022/10/14 05:02:37;;;;;;;11.55;8.35;;;15.80;99.90;;;;;;4993251;28;20175;-65
2022/10/14 05:05:04;;;;;;;14.38;9.07;;;16.00;99.90;;;;;;4993272;28;20200;-66
2022/10/14 05:07:30;;;;;;;15.50;9.70;;;16.10;99.90;;;;;;4967894;28;20190;-65
2022/10/14 05:09:56;;;;;;;15.48;9.02;;;16.20;99.90;;;;;;4999911;28;20638;-66
2022/10/14 05:12:22;;;;;;;15.88;8.98;;;16.00;99.90;;;;;;4994249;28;20191;-68
2022/10/14 05:14:47;;;;;;;14.93;8.35;;;16.10;99.90;;;;;;4993462;28;20228;-65
2022/10/14 05:17:13;;;;;;;17.05;10.45;;;16.20;99.90;;;;;;4975585;28;20283;-65
2022/10/14 05:19:39;;;;;;;14.15;8.52;;;16.30;99.90;;;;;;4993045;28;20195;-66
2022/10/14 05:22:05;;;;;;;16.05;9.13;;;16.10;99.90;;;;;;4975101;28;20246;-66
2022/10/14 05:24:30;;;;;;;15.07;9.80;;;16.00;99.90;;;;;;4975767;28;20680;-67
2022/10/14 05:26:56;;;;;;;15.57;8.52;;;15.90;99.90;;;;;;4983888;28;20275;-66
2022/10/14 05:29:25;;;;;;;19.00;9.65;;;15.90;99.90;;;;;;5000668;28;20553;-66
2022/10/14 05:31:50;;;;;;;16.02;8.75;;;15.80;99.90;;;;;;4991318;28;20230;-64
2022/10/14 05:34:16;;;;;;;15.60;8.82;;;15.90;99.90;;;;;;4973201;28;20637;-65
2022/10/14 05:36:42;;;;;;;13.32;8.20;;;16.00;99.90;;;;;;5000613;28;20188;-64
2022/10/14 05:39:09;;;;;;;16.67;9.10;;;15.90;99.90;;;;;;4980324;28;20637;-64
2022/10/14 05:41:35;;;;;;;16.85;9.23;;;16.10;99.90;;;;;;4972994;28;20278;-64
2022/10/14 05:44:01;;;;;;;16.90;8.60;;;16.10;99.90;;;;;;4963653;28;20271;-64
2022/10/14 05:46:26;;;;;;;18.60;9.38;;;16.10;99.90;;;;;;5006695;28;20275;-63
2022/10/14 05:48:52;;;;;;;15.32;9.23;;;16.00;99.90;;;;;;5007800;28;20207;-64
2022/10/14 05:51:20;;;;;;;13.95;8.45;;;16.00;99.90;;;;;;5003243;28;20274;-65
2022/10/14 05:53:46;;;;;;;12.65;7.53;;;15.90;99.90;;;;;;4977542;28;20192;-64
2022/10/14 05:56:15;;;;;;;15.93;8.88;;;16.00;99.90;;;;;;4990226;28;20772;-65
2022/10/14 05:58:40;;;;;;;18.83;9.02;;;16.00;99.90;;;;;;4992025;28;20691;-64
2022/10/14 06:01:08;;;;;;;16.65;9.90;;;15.90;99.90;;;;;;4985152;28;20287;-64
2022/10/14 06:03:34;;;;;;;15.98;9.50;;;15.90;99.90;;;;;;4997710;28;20226;-66
2022/10/14 06:06:00;;;;;;;13.25;8.40;;;15.80;99.90;;;;;;5010501;28;20184;-66
2022/10/14 06:08:27;;;;;;;15.13;8.52;;;15.90;99.90;;;;;;4974430;28;20220;-65
2022/10/14 06:10:53;;;;;;;18.67;8.88;;;16.00;99.90;;;;;;5002085;28;20225;-65
2022/10/14 06:13:20;;;;;;;15.15;7.57;;;15.90;99.90;;;;;;4993708;28;20199;-65
2022/10/14 06:15:46;;;;;;;16.73;8.43;;;15.80;99.90;;;;;;4979174;28;20220;-65
2022/10/14 06:18:12;;;;;;;14.45;8.13;;;15.80;99.90;;;;;;4972601;28;20196;-65
2022/10/14 06:20:38;;;;;;;11.85;8.18;;;15.80;99.90;;;;;;4997466;28;20188;-65
2022/10/14 06:23:03;;;;;;;16.13;9.07;;;15.80;99.90;;;;;;4981184;28;20192;-65
2022/10/14 06:25:29;;;;;;;15.13;8.38;;;15.80;99.90;;;;;;4996779;28;20196;-65
2022/10/14 06:28:02;;;;;;;16.27;8.82;;;15.90;99.90;;;;;;4958524;28;20210;-65
2022/10/14 06:30:27;;;;;;;12.52;8.32;;;16.00;99.90;;;;;;4996720;28;20180;-66
2022/10/14 06:32:53;;;;;;;16.58;9.48;;;16.10;99.90;;;;;;4997122;28;20278;-66
2022/10/14 06:35:19;;;;;;;14.25;8.68;;;16.10;99.90;;;;;;4996431;28;20275;-66
2022/10/14 06:37:46;;;;;;;13.70;8.80;;;16.10;99.90;;;;;;4997115;28;20716;-66
2022/10/14 06:40:11;;;;;;;19.48;9.55;;;16.00;99.90;;;;;;5010126;28;20645;-66
2022/10/14 06:42:37;;;;;;;19.15;9.60;;;16.10;99.90;;;;;;4979259;28;20188;-68
2022/10/14 06:45:05;;;;;;;18.67;9.88;;;16.10;99.90;;;;;;4983147;28;20198;-67
2022/10/14 06:47:31;;;;;;;17.45;9.30;;;16.10;99.90;;;;;;4986694;28;20195;-66
2022/10/14 06:49:57;;;;;;;17.95;9.90;;;16.10;99.90;;;;;;5001342;28;20254;-65
2022/10/14 06:52:22;;;;;;;17.65;9.32;;;16.10;99.90;;;;;;5013095;28;20195;-66
2022/10/14 06:54:48;;;;;;;18.02;9.55;;;16.00;99.90;;;;;;4985722;28;20278;-66
2022/10/14 06:57:14;;;;;;;18.80;9.02;;;16.10;99.90;;;;;;4962633;28;20222;-66
2022/10/14 06:59:40;;;;;;;14.65;8.45;;;16.10;99.90;;;;;;4984291;28;20645;-66
2022/10/14 07:02:06;;;;;;;17.95;8.88;;;16.10;99.90;;;;;;5010511;28;20218;-65
2022/10/14 07:04:31;;;;;;;16.08;8.93;;;16.10;99.90;;;;;;4991486;28;20640;-66
2022/10/14 07:06:57;;;;;;;18.00;9.38;;;16.00;99.90;;;;;;5004925;28;20194;-66
2022/10/14 07:09:23;;;;;;;13.02;8.38;;;16.00;99.90;;;;;;5006108;28;20183;-66
2022/10/14 07:11:50;;;;;;;15.68;9.88;;;15.90;99.90;;;;;;4956241;28;20186;-66
2022/10/14 07:14:15;;;;;;;17.95;9.02;;;16.00;99.90;;;;;;5006668;28;20715;-65
2022/10/14 07:16:44;;;;;;;16.33;8.77;;;16.10;99.90;;;;;;5007812;28;20191;-66
2022/10/14 07:19:11;;;;;;;18.75;9.32;;;16.00;99.90;;;;;;5012066;28;20270;-65
2022/10/14 07:21:36;;;;;;;14.57;8.50;;;16.10;99.90;;;;;;5009606;28;20223;-66
2022/10/14 07:24:02;;;;;;;15.07;8.52;;;16.20;99.90;;;;;;4993155;28;20195;-66
2022/10/14 07:26:31;;;;;;;15.85;7.72;;;16.20;99.90;;;;;;5003675;28;20218;-65
2022/10/14 07:28:57;;;;;;;14.95;8.10;;;16.20;99.90;;;;;;4992483;28;21032;-66
2022/10/14 07:31:22;;;;;;;17.17;8.65;;;16.30;99.90;;;;;;5004764;28;20202;-66
2022/10/14 07:33:48;;;;;;;14.02;8.63;;;16.30;99.90;;;;;;5002624;28;20188;-66
2022/10/14 07:36:16;;;;;;;16.27;8.27;;;16.40;99.90;;;;;;5009889;28;20204;-65
2022/10/14 07:38:42;;;;;;;13.35;8.32;;;16.40;99.90;;;;;;5006228;28;20283;-65
2022/10/14 07:41:17;;;;;;;17.83;8.63;;;16.40;99.90;;;;;;5010523;28;20187;-65
2022/10/14 07:43:54;;;;;;;18.77;9.13;;;16.30;99.90;;;;;;5005662;28;20195;-66
2022/10/14 07:46:31;;;;;;;15.57;9.65;;;16.30;99.90;;;;;;5011690;28;20270;-66
2022/10/14 07:48:58;;;;;;;15.32;9.55;;;16.40;99.90;;;;;;5005428;28;20200;-65
2022/10/14 07:51:26;;;;;;;17.02;10.00;;;16.50;99.90;;;;;;5001804;28;20184;-66
2022/10/14 07:53:53;;;;;;;13.73;8.40;;;16.40;99.90;;;;;;4978355;28;20188;-66
2022/10/14 07:56:19;;;;;;;18.48;10.10;;;16.30;99.90;;;;;;4999645;28;20219;-65
2022/10/14 07:58:45;;;;;;;14.85;8.43;;;16.40;99.90;;;;;;4991665;28;20695;-65
2022/10/14 08:01:13;;;;;;;12.63;8.73;;;16.50;99.90;;;;;;5004464;28;20183;-65
2022/10/14 08:03:39;;;;;;;15.73;7.85;;;16.50;99.90;;;;;;4991952;28;20620;-66
2022/10/14 08:06:05;;;;;;;13.05;7.72;;;16.70;99.90;;;;;;5001056;28;20191;-65
2022/10/14 08:08:30;;;;;;;11.57;6.80;;;16.60;99.90;;;;;;5002257;28;20727;-66
2022/10/14 08:11:06;;;;;;;23.38;12.20;;;16.60;99.90;;;;;;4993825;28;20187;-65
2022/10/14 08:13:32;;;;;;;18.17;11.75;;;16.60;99.90;;;;;;4988015;28;20636;-66
2022/10/14 08:15:58;;;;;;;15.45;11.27;;;16.70;99.90;;;;;;4992377;28;20224;-66
2022/10/14 08:18:25;;;;;;;17.02;9.45;;;16.70;99.90;;;;;;4993970;28;20330;-65
2022/10/14 08:20:50;;;;;;;15.32;7.82;;;16.70;99.90;;;;;;4986838;28;20541;-66
2022/10/14 08:23:16;;;;;;;12.88;8.10;;;16.80;99.90;;;;;;4966226;28;20188;-65
2022/10/14 08:25:42;;;;;;;9.52;6.60;;;16.70;99.90;;;;;;4994182;28;20192;-66
2022/10/14 08:28:08;;;;;;;13.98;7.25;;;16.70;99.90;;;;;;4983615;28;20282;-66
2022/10/14 08:30:34;;;;;;;11.10;7.55;;;16.90;99.90;;;;;;4974335;28;20227;-66
2022/10/14 08:33:00;;;;;;;12.40;7.35;;;17.00;99.90;;;;;;4997774;28;20215;-66
2022/10/14 08:35:26;;;;;;;11.27;6.72;;;17.00;99.90;;;;;;4984785;28;20223;-65
2022/10/14 08:37:59;;;;;;;10.27;6.68;;;17.00;99.90;;;;;;5009239;28;20202;-66
2022/10/14 08:40:30;;;;;;;9.55;6.50;;;17.00;99.90;;;;;;5012273;28;20221;-66
2022/10/14 08:43:18;;;;;;;12.02;6.63;;;17.00;99.90;;;;;;4992819;28;20279;-66
2022/10/14 08:45:51;;;;;;;9.52;6.18;;;17.10;99.90;;;;;;4999661;28;20239;-66
2022/10/14 08:48:22;;;;;;;7.68;5.93;;;17.30;99.90;;;;;;4972991;28;20192;-65
2022/10/14 08:51:02;;;;;;;11.07;6.30;;;17.20;99.90;;;;;;4999096;28;20184;-66
2022/10/14 08:53:55;;;;;;;8.25;5.35;;;17.10;99.90;;;;;;5004525;28;20186;-65
2022/10/14 08:56:22;;;;;;;11.40;5.53;;;17.00;99.90;;;;;;5005358;28;20215;-65
2022/10/14 08:58:50;;;;;;;9.13;5.90;;;17.00;99.90;;;;;;5006066;28;20184;-66
2022/10/14 09:01:29;;;;;;;8.13;5.93;;;16.90;99.90;;;;;;4993227;28;20222;-65
2022/10/14 09:04:04;;;;;;;11.90;6.53;;;16.80;99.90;;;;;;4992801;28;20227;-66
2022/10/14 09:06:32;;;;;;;7.82;5.53;;;16.80;99.90;;;;;;4993537;28;20675;-66
2022/10/14 09:09:25;;;;;;;8.43;5.55;;;16.80;99.90;;;;;;4992927;28;20211;-65
2022/10/14 09:12:01;;;;;;;10.40;5.90;;;16.80;99.90;;;;;;4975991;28;20270;-65
2022/10/14 09:14:34;;;;;;;8.68;6.13;;;16.80;99.90;;;;;;4993402;28;20183;-66
2022/10/14 09:17:12;;;;;;;8.35;5.60;;;16.90;99.90;;;;;;4992870;28;20680;-66
2022/10/14 09:19:47;;;;;;;8.43;5.47;;;16.90;99.90;;;;;;4993313;28;20179;-66
2022/10/14 09:22:14;;;;;;;9.15;6.25;;;17.00;99.90;;;;;;5003126;28;20238;-66
2022/10/14 09:24:41;;;;;;;6.35;4.93;;;17.10;99.90;;;;;;4993257;28;20296;-66
2022/10/14 09:27:17;;;;;;;7.90;6.95;;;17.10;99.90;;;;;;4979700;28;20266;-66
2022/10/14 09:29:45;;;;;;;9.80;5.25;;;17.10;99.90;;;;;;4993497;28;20187;-66
2022/10/14 09:32:40;;;;;;;8.98;5.85;;;17.20;99.90;;;;;;4975721;28;20285;-66
2022/10/14 09:35:14;;;;;;;8.18;5.45;;;17.20;99.90;;;;;;4983645;28;20715;-66
2022/10/14 09:37:41;;;;;;;8.82;5.35;;;17.20;99.90;;;;;;4996185;28;20192;-67
2022/10/14 09:40:10;;;;;;;7.28;4.88;;;17.30;99.90;;;;;;4999141;28;20188;-65
2022/10/14 09:42:46;;;;;;;5.53;4.50;;;17.30;99.90;;;;;;4996439;28;20187;-66
2022/10/14 09:45:15;;;;;;;6.53;4.80;;;17.50;99.90;;;;;;4979785;28;20191;-65
2022/10/14 09:48:02;;;;;;;4.88;4.28;;;17.50;99.90;;;;;;4996414;28;20540;-66
2022/10/14 09:50:42;;;;;;;6.13;4.53;;;17.50;99.90;;;;;;4991294;28;20305;-66
2022/10/14 09:53:16;;;;;;;4.13;3.67;;;17.80;99.90;;;;;;4990265;28;20180;-65
2022/10/14 09:55:53;;;;;;;5.05;3.80;;;17.90;99.90;;;;;;5003427;28;20207;-66
2022/10/14 09:58:44;;;;;;;4.10;3.20;;;17.80;99.90;;;;;;5008892;28;20194;-66
2022/10/14 10:01:21;;;;;;;3.45;3.08;;;17.80;99.90;;;;;;4990742;28;20238;-65
2022/10/14 10:03:48;;;;;;;4.10;3.70;;;17.80;99.90;;;;;;5013521;28;20640;-65
2022/10/14 10:06:21;;;;;;;4.30;3.53;;;17.60;99.90;;;;;;5008968;28;20192;-65
2022/10/14 10:08:53;;;;;;;4.65;4.15;;;17.60;99.90;;;;;;5013846;28;21467;-66
2022/10/14 10:11:38;;;;;;;3.55;3.25;;;17.70;99.90;;;;;;5005458;28;20666;-66
2022/10/14 10:14:31;;;;;;;3.58;2.80;;;17.60;99.90;;;;;;4995096;28;20175;-66
2022/10/14 10:17:06;;;;;;;4.40;3.75;;;17.60;99.90;;;;;;4996833;28;20196;-66
2022/10/14 10:19:35;;;;;;;4.63;3.83;;;17.70;99.90;;;;;;4996831;28;20253;-66
2022/10/14 10:22:25;;;;;;;4.85;3.58;;;17.80;99.90;;;;;;5003929;28;20546;-66
2022/10/14 10:24:57;;;;;;;4.63;3.20;;;17.70;99.90;;;;;;4996167;28;20184;-66
2022/10/14 10:27:24;;;;;;;4.20;3.17;;;17.90;99.90;;;;;;5003465;28;20183;-67
2022/10/14 10:29:50;;;;;;;3.38;2.80;;;17.90;99.90;;;;;;4996109;28;20176;-66
2022/10/14 10:32:29;;;;;;;3.92;3.55;;;18.10;99.90;;;;;;4997216;28;20282;-66
2022/10/14 10:35:19;;;;;;;4.00;3.30;;;18.00;99.90;;;;;;5008124;28;20266;-66
2022/10/14 10:38:05;;;;;;;3.08;2.88;;;17.90;99.90;;;;;;4997070;28;20266;-66
2022/10/14 10:41:14;;;;;;;4.22;3.67;;;17.70;99.90;;;;;;4996361;28;20172;-66
2022/10/14 10:43:42;;;;;;;3.58;3.15;;;17.70;99.90;;;;;;4995755;28;20169;-66
2022/10/14 10:46:19;;;;;;;4.63;3.65;;;17.70;99.90;;;;;;4995139;28;20191;-66
2022/10/14 10:49:16;;;;;;;3.17;2.92;;;17.70;99.90;;;;;;5002921;28;20202;-66
2022/10/14 10:51:56;;;;;;;4.20;2.90;;;17.70;99.90;;;;;;5008918;28;20180;-66
2022/10/14 10:54:30;;;;;;;3.90;3.17;;;17.50;99.90;;;;;;5008909;28;20207;-65
2022/10/14 10:57:30;;;;;;;5.75;3.80;;;17.50;99.90;;;;;;4994359;28;20532;-66
2022/10/14 11:00:02;;;;;;;4.43;3.67;;;17.40;99.90;;;;;;5007371;28;20195;-66
2022/10/14 11:02:46;;;;;;;4.00;3.60;;;17.50;99.90;;;;;;5012968;28;20193;-66
2022/10/14 11:05:17;;;;;;;4.95;4.20;;;17.60;99.90;;;;;;5000784;28;20286;-66
2022/10/14 11:13:49;;;;;;;5.68;5.03;;;18.00;99.90;;;;;;4997712;28;20194;-66
2022/10/14 11:16:30;;;;;;;5.03;3.60;;;18.10;99.90;;;;;;4995485;28;20231;-66
2022/10/14 11:19:14;;;;;;;4.93;3.90;;;18.10;99.90;;;;;;4999145;28;20196;-66
2022/10/14 11:22:07;;;;;;;7.80;4.68;;;18.30;99.90;;;;;;4997419;28;20511;-66
2022/10/14 11:24:57;;;;;;;4.47;3.88;;;18.30;99.90;;;;;;4996425;28;20219;-66
2022/10/14 11:27:26;;;;;;;5.07;3.80;;;18.50;99.90;;;;;;4992035;28;20595;-67
2022/10/14 11:30:18;;;;;;;4.13;3.17;;;18.50;99.90;;;;;;5003727;28;20187;-66
2022/10/14 11:32:52;;;;;;;7.40;4.80;;;18.60;99.90;;;;;;4997504;28;20180;-66
2022/10/14 11:35:39;;;;;;;8.32;4.72;;;18.60;99.90;;;;;;4995979;28;20215;-66
2022/10/14 11:38:32;;;;;;;7.40;3.90;;;18.60;99.90;;;;;;5011682;28;20538;-66
2022/10/14 11:41:03;;;;;;;5.40;3.60;;;18.50;99.90;;;;;;5008176;28;20633;-66
2022/10/14 11:44:03;;;;;;;4.88;3.67;;;18.60;99.90;;;;;;4996675;28;20180;-66
2022/10/14 11:46:35;;;;;;;5.65;4.28;;;18.70;99.90;;;;;;5000038;28;20188;-66
2022/10/14 11:49:12;;;;;;;6.97;4.15;;;18.90;99.90;;;;;;4995695;28;20202;-66
2022/10/14 11:52:16;;;;;;;7.35;4.50;;;19.20;99.90;;;;;;5011195;28;20581;-66
2022/10/14 11:54:49;;;;;;;5.68;4.15;;;19.40;99.90;;;;;;4929044;29;20196;-66
2022/10/14 11:57:32;;;;;;;6.55;5.28;;;19.60;99.90;;;;;;4983516;28;20283;-66
2022/10/14 12:00:12;;;;;;;7.50;4.88;;;19.70;99.90;;;;;;4990553;28;20183;-67
2022/10/14 12:03:09;;;;;;;8.80;5.25;;;19.90;99.90;;;;;;4996051;28;20177;-66
2022/10/14 12:05:58;;;;;;;9.95;6.18;;;20.10;99.90;;;;;;4993486;28;20180;-66
2022/10/14 12:08:32;;;;;;;5.60;3.50;;;20.00;99.90;;;;;;4980936;28;20238;-66
2022/10/14 12:11:14;;;;;;;6.60;4.47;;;20.10;99.90;;;;;;5000953;28;20238;-66
2022/10/14 12:13:46;;;;;;;6.55;3.70;;;20.20;99.90;;;;;;4998552;28;20184;-67
2022/10/14 12:16:15;;;;;;;5.57;3.92;;;20.30;99.90;;;;;;5004002;28;20219;-66
2022/10/14 12:18:43;;;;;;;6.22;4.55;;;20.20;99.90;;;;;;4994177;28;20234;-67
2022/10/14 12:21:14;;;;;;;6.38;4.97;;;20.10;99.90;;;;;;5003773;28;20264;-66
2022/10/14 12:23:48;;;;;;;6.00;4.32;;;20.20;99.90;;;;;;4995457;28;20198;-66
2022/10/14 12:26:23;;;;;;;6.32;4.80;;;19.90;99.90;;;;;;4976297;28;20238;-66
2022/10/14 12:28:50;;;;;;;5.90;4.50;;;19.70;99.90;;;;;;4992601;28;20267;-65
2022/10/14 12:31:35;;;;;;;6.22;4.47;;;19.60;99.90;;;;;;4976562;28;20242;-67
2022/10/14 12:34:10;;;;;;;5.63;4.82;;;19.70;99.90;;;;;;4994076;28;20715;-66
2022/10/14 12:36:37;;;;;;;7.32;4.88;;;19.90;99.90;;;;;;5012285;28;20257;-67
2022/10/14 12:39:17;;;;;;;4.57;4.10;;;20.00;99.90;;;;;;4999858;28;20185;-66
2022/10/14 12:42:13;;;;;;;8.20;5.38;;;20.00;99.90;;;;;;4990023;28;20176;-66
2022/10/14 12:44:50;;;;;;;6.60;4.90;;;20.10;99.90;;;;;;4993847;28;20186;-66
2022/10/14 12:47:34;;;;;;;7.05;4.90;;;20.20;99.90;;;;;;5006969;28;20183;-67
2022/10/14 12:50:23;;;;;;;9.00;6.63;;;20.10;99.90;;;;;;5008648;28;20198;-65
2022/10/14 12:53:00;;;;;;;12.73;7.00;;;20.30;99.90;;;;;;4992471;28;20191;-66
2022/10/14 12:55:30;;;;;;;11.85;7.95;;;20.30;99.90;;;;;;4998033;28;20215;-66
2022/10/14 12:57:59;;;;;;;12.43;7.55;;;20.40;99.90;;;;;;5011031;28;20632;-66
2022/10/14 13:00:24;;;;;;;12.63;7.07;;;20.40;99.90;;;;;;5008159;28;20259;-66
2022/10/14 13:02:58;;;;;;;10.75;6.43;;;20.50;99.90;;;;;;4991256;28;20220;-66
2022/10/14 13:05:26;;;;;;;8.18;6.05;;;20.60;99.90;;;;;;5001490;28;20195;-66
2022/10/14 13:08:10;;;;;;;9.38;5.97;;;20.40;99.90;;;;;;5007016;28;20180;-66